Hill Air Force Base Ogden US
ICAO: KHIF
IATA: HIF
Category: Medium
Scheduled Services: No

Elevation: 4789 ft
TransAlt. 18000 ft.

Airport Communications:
SALT LAKE CITY APP:25.787
SALT LAKE CITY APP:31.925
SALT LAKE CITY APP:121.1
ATIS:134.925
CLNC DEL:124.1
SALT LAKE CITY DEP:121.1
GND:121.6
419 OPS:25.21
PMSV METRO:34.23
COMD POST:38.13
PTD:139.3
TWR:127.15

KHIF Zoom In..

Runways:

(A) RW 14 length 13508 ft width 200 ft
ILS 109.90 / hdg 139

(B) RW 32 length 13508 ft width 200 ft
---- / hdg 319

Location; KHIF
Day. 17 / Time. 06.58 Zulu
* Altimeter: 30.16
* Temperature: 24° c. 75.2°f.
* Wind from: 090° Speed 10 kn with Gusts up to 15 kn.
Dewpoint: 10° c.
Visibility: 10 Statute Miles.
Clouds: Scattered 8000 ft.

KHIF 170658Z 09010G15KT 10SM SCT080 24/10 A3016 RMK WND DATA ESTMD ALSTG ESTMD


Wind From 090°
Speed 10 kn.

 
 
jpsmedia.com for Web Design worldairports.se 2018   terms of use